createdAt,value
2023-02-04T00:00:21.727Z,41.09
2023-02-04T00:02:50.115Z,40.64
2023-02-04T00:05:18.697Z,40.44
2023-02-04T00:07:46.533Z,40.17
2023-02-04T00:10:14.291Z,40.27
2023-02-04T00:12:41.754Z,40.45
2023-02-04T00:15:11.036Z,40.31
2023-02-04T00:17:39.691Z,40.33
2023-02-04T00:20:07.788Z,40.70
2023-02-04T00:22:35.260Z,40.42
2023-02-04T00:25:03.016Z,40.37
2023-02-04T00:27:31.220Z,40.22
2023-02-04T00:30:02.007Z,40.92
2023-02-04T00:32:31.527Z,40.60
2023-02-04T00:34:59.063Z,40.26
2023-02-04T00:37:26.614Z,40.38
2023-02-04T00:39:54.128Z,40.08
2023-02-04T00:42:21.589Z,40.56
2023-02-04T00:44:49.189Z,40.43
2023-02-04T00:47:17.840Z,39.71
2023-02-04T00:49:45.369Z,40.19
2023-02-04T00:52:12.911Z,40.65
2023-02-04T00:54:41.415Z,40.90
2023-02-04T00:57:08.896Z,40.76
2023-02-04T00:59:36.344Z,40.61
2023-02-04T01:02:03.858Z,41.19
2023-02-04T01:04:31.374Z,40.85
2023-02-04T01:06:59.035Z,41.53
2023-02-04T01:09:27.454Z,42.31
2023-02-04T01:11:55.043Z,42.02
2023-02-04T01:14:22.550Z,42.29
2023-02-04T01:16:50.166Z,42.59
2023-02-04T01:19:17.669Z,42.98
2023-02-04T01:21:45.184Z,42.77
2023-02-04T01:24:13.043Z,43.53
2023-02-04T01:26:58.987Z,43.02
2023-02-04T01:29:26.535Z,42.75
2023-02-04T01:31:54.055Z,43.24
2023-02-04T01:34:22.067Z,42.37
2023-02-04T01:36:49.673Z,42.47
2023-02-04T01:39:18.192Z,42.17
2023-02-04T01:41:47.528Z,41.71
2023-02-04T01:44:15.082Z,41.93
2023-02-04T01:46:42.947Z,41.33
2023-02-04T01:49:11.624Z,41.57
2023-02-04T01:51:39.800Z,41.74
2023-02-04T01:54:12.426Z,41.79
2023-02-04T01:56:43.371Z,41.32
2023-02-04T01:59:15.586Z,42.25
2023-02-04T02:01:46.634Z,41.62
2023-02-04T02:04:21.010Z,41.54
2023-02-04T02:06:55.707Z,41.63
2023-02-04T02:09:23.893Z,41.78
2023-02-04T02:11:51.687Z,41.83
2023-02-04T02:14:20.264Z,41.67
2023-02-04T02:16:47.951Z,41.37
2023-02-04T02:19:24.629Z,41.82
2023-02-04T02:22:07.441Z,42.05
2023-02-04T02:24:36.344Z,41.52
2023-02-04T02:27:08.685Z,41.65
2023-02-04T02:29:38.907Z,42.08
2023-02-04T02:32:06.922Z,41.52
2023-02-04T02:34:35.490Z,41.29
2023-02-04T02:37:04.873Z,41.12
2023-02-04T02:39:33.078Z,41.15
2023-02-04T02:42:00.809Z,40.81
2023-02-04T02:44:30.488Z,41.71
2023-02-04T02:46:58.381Z,40.73
2023-02-04T02:49:27.577Z,41.17
2023-02-04T02:51:55.283Z,40.78
2023-02-04T02:54:32.763Z,41.48
2023-02-04T02:57:03.437Z,40.92
2023-02-04T02:59:31.013Z,40.71
2023-02-04T03:02:02.385Z,40.85
2023-02-04T03:04:38.778Z,40.11
2023-02-04T03:07:07.952Z,40.37
2023-02-04T03:09:36.444Z,40.19
2023-02-04T03:12:06.477Z,40.63
2023-02-04T03:14:38.564Z,40.57
2023-02-04T03:17:09.506Z,40.78
2023-02-04T03:19:38.223Z,40.58
2023-02-04T03:22:07.299Z,39.84
2023-02-04T03:24:36.503Z,39.85
2023-02-04T03:27:04.847Z,38.93
2023-02-04T03:29:32.488Z,38.91
2023-02-04T03:32:06.753Z,39.01
2023-02-04T03:34:34.183Z,38.72
2023-02-04T03:37:01.738Z,38.53
2023-02-04T03:39:29.520Z,38.39
2023-02-04T03:41:56.995Z,38.72
2023-02-04T03:44:27.157Z,38.43
2023-02-04T03:46:55.903Z,38.68
2023-02-04T03:49:24.188Z,38.41
2023-02-04T03:51:52.244Z,38.24
2023-02-04T03:54:19.834Z,38.13
2023-02-04T03:56:47.462Z,38.42
2023-02-04T03:59:14.985Z,38.29
2023-02-04T04:01:42.586Z,38.53
2023-02-04T04:04:10.308Z,39.96
2023-02-04T04:06:37.978Z,39.69
2023-02-04T04:09:05.591Z,39.82
2023-02-04T04:11:33.164Z,39.19
2023-02-04T04:14:01.645Z,38.72
2023-02-04T04:16:29.418Z,38.87
2023-02-04T04:18:57.134Z,38.92
2023-02-04T04:21:24.674Z,38.73
2023-02-04T04:23:52.194Z,38.30
2023-02-04T04:26:20.395Z,38.09
2023-02-04T04:28:48.036Z,38.31
2023-02-04T04:31:15.832Z,37.88
2023-02-04T04:33:44.213Z,37.20
2023-02-04T04:36:11.874Z,36.90
2023-02-04T04:38:39.398Z,37.38
2023-02-04T04:41:06.979Z,37.03
2023-02-04T04:43:34.469Z,36.78
2023-02-04T04:46:02.417Z,36.12
2023-02-04T04:48:31.840Z,36.31
2023-02-04T04:50:59.484Z,35.84
2023-02-04T04:53:27.053Z,35.48
2023-02-04T04:55:54.694Z,34.82
2023-02-04T04:58:22.348Z,34.62
2023-02-04T05:00:49.827Z,33.96
2023-02-04T05:03:17.308Z,32.94
2023-02-04T05:05:44.849Z,32.84
2023-02-04T05:08:14.424Z,32.38
2023-02-04T05:10:42.355Z,32.39
2023-02-04T05:13:10.412Z,31.44
2023-02-04T05:15:38.161Z,30.80
2023-02-04T05:18:06.068Z,30.91
2023-02-04T05:20:34.835Z,30.66
2023-02-04T05:23:05.155Z,29.63
2023-02-04T05:25:33.651Z,28.96
2023-02-04T05:28:01.383Z,28.96
2023-02-04T05:30:29.187Z,28.54
2023-02-04T05:32:56.746Z,28.14
2023-02-04T05:35:24.650Z,26.97
2023-02-04T05:37:52.161Z,27.15
2023-02-04T05:40:19.759Z,26.53
2023-02-04T05:42:47.249Z,26.09
2023-02-04T05:45:16.627Z,25.57
2023-02-04T05:47:44.219Z,25.60
2023-02-04T05:50:12.185Z,25.15
2023-02-04T05:52:40.521Z,24.89
2023-02-04T05:55:10.744Z,24.31
2023-02-04T05:57:39.724Z,24.24
2023-02-04T06:00:08.377Z,23.98
2023-02-04T06:02:41.754Z,23.96
2023-02-04T06:05:12.233Z,23.33
2023-02-04T06:07:39.840Z,22.96
2023-02-04T06:10:11.940Z,22.31
2023-02-04T06:12:42.858Z,22.34
2023-02-04T06:15:11.121Z,22.35
2023-02-04T06:17:38.927Z,22.09
2023-02-04T06:20:07.478Z,21.96
2023-02-04T06:22:35.077Z,21.61
2023-02-04T06:25:02.704Z,21.38
2023-02-04T06:27:30.980Z,20.92
2023-02-04T06:29:58.881Z,20.72
2023-02-04T06:32:28.282Z,20.72
2023-02-04T06:34:56.437Z,20.19
2023-02-04T06:37:24.474Z,20.25
2023-02-04T06:39:52.498Z,19.55
2023-02-04T06:42:20.195Z,19.70
2023-02-04T06:44:47.811Z,19.35
2023-02-04T06:47:15.281Z,19.23
2023-02-04T06:49:42.936Z,19.10
2023-02-04T06:52:10.593Z,19.08
2023-02-04T06:54:38.623Z,18.75
2023-02-04T06:57:12.550Z,18.32
2023-02-04T06:59:40.536Z,19.42
2023-02-04T07:02:11.418Z,18.29
2023-02-04T07:04:41.441Z,18.68
2023-02-04T07:07:09.111Z,18.33
2023-02-04T07:09:36.605Z,18.26
2023-02-04T07:12:05.384Z,18.23
2023-02-04T07:14:33.067Z,18.20
2023-02-04T07:17:00.692Z,17.96
2023-02-04T07:19:28.402Z,18.03
2023-02-04T07:21:57.296Z,17.97
2023-02-04T07:24:25.460Z,17.53
2023-02-04T07:26:53.026Z,17.62
2023-02-04T07:29:25.687Z,17.55
2023-02-04T07:31:54.258Z,17.28
2023-02-04T07:34:22.012Z,17.62
2023-02-04T07:36:49.696Z,17.95
2023-02-04T07:39:17.188Z,17.63
2023-02-04T07:41:44.708Z,18.45
2023-02-04T07:44:14.630Z,17.80
2023-02-04T07:46:42.168Z,17.87
2023-02-04T07:49:09.822Z,18.29
2023-02-04T07:51:37.801Z,18.47
2023-02-04T07:54:06.149Z,18.25
2023-02-04T07:56:34.135Z,18.05
2023-02-04T07:59:02.938Z,18.21
2023-02-04T08:01:35.491Z,18.32
2023-02-04T08:04:03.057Z,17.88
2023-02-04T08:06:30.754Z,18.34
2023-02-04T08:08:59.065Z,18.29
2023-02-04T08:11:27.630Z,18.11
2023-02-04T08:13:55.226Z,18.78
2023-02-04T08:16:22.851Z,18.85
2023-02-04T08:18:50.336Z,18.94
2023-02-04T08:21:19.386Z,19.13
2023-02-04T08:23:47.821Z,19.06
2023-02-04T08:26:15.452Z,19.23
2023-02-04T08:28:42.943Z,19.45
2023-02-04T08:31:13.591Z,19.89
2023-02-04T08:33:41.224Z,20.17
2023-02-04T08:36:09.272Z,20.62
2023-02-04T08:38:36.927Z,21.35
2023-02-04T08:41:04.864Z,21.54
2023-02-04T08:43:32.324Z,21.88
2023-02-04T08:45:59.943Z,22.16
2023-02-04T08:48:27.535Z,22.49
2023-02-04T08:50:54.994Z,22.67
2023-02-04T08:53:22.566Z,22.74
2023-02-04T08:55:50.061Z,22.84
2023-02-04T08:58:17.633Z,22.92
2023-02-04T09:00:45.328Z,23.62
2023-02-04T09:03:12.985Z,23.24
2023-02-04T09:05:40.493Z,23.52
2023-02-04T09:08:08.050Z,23.53
2023-02-04T09:10:35.633Z,23.76
2023-02-04T09:13:04.419Z,24.45
2023-02-04T09:15:31.843Z,24.09
2023-02-04T09:18:11.564Z,24.23
2023-02-04T09:20:39.501Z,24.97
2023-02-04T09:23:15.595Z,25.30
2023-02-04T09:25:44.643Z,25.71
2023-02-04T09:28:13.700Z,25.67
2023-02-04T09:30:42.442Z,25.71
2023-02-04T09:33:11.804Z,25.83
2023-02-04T09:35:39.705Z,26.20
2023-02-04T09:38:07.283Z,26.45
2023-02-04T09:40:41.290Z,27.13
2023-02-04T09:43:14.717Z,27.50
2023-02-04T09:45:44.567Z,27.17
2023-02-04T09:48:15.019Z,27.13
2023-02-04T09:50:42.758Z,27.00
2023-02-04T09:53:18.216Z,27.54
2023-02-04T09:55:48.026Z,27.53
2023-02-04T09:58:21.005Z,27.59
2023-02-04T10:00:57.341Z,27.66
2023-02-04T10:03:25.343Z,27.77
2023-02-04T10:05:54.001Z,28.00
2023-02-04T10:08:29.825Z,28.00
2023-02-04T10:11:00.196Z,27.86
2023-02-04T10:13:34.258Z,28.08
2023-02-04T10:16:02.294Z,27.86
2023-02-04T10:18:33.240Z,28.25
2023-02-04T10:21:17.566Z,27.69
2023-02-04T10:23:48.962Z,27.87
2023-02-04T10:26:29.047Z,27.78
2023-02-04T10:29:08.214Z,28.10
2023-02-04T10:31:40.471Z,28.30
2023-02-04T10:34:13.563Z,28.54
2023-02-04T10:36:43.147Z,28.20
2023-02-04T10:39:15.072Z,28.39
2023-02-04T10:41:49.729Z,28.41
2023-02-04T10:44:20.512Z,27.83
2023-02-04T10:46:48.748Z,28.03
2023-02-04T10:49:26.789Z,27.90
2023-02-04T10:51:54.558Z,27.89
2023-02-04T10:54:39.744Z,28.09
2023-02-04T10:57:23.645Z,28.29
2023-02-04T10:59:55.495Z,28.58
2023-02-04T11:02:52.321Z,28.60
2023-02-04T11:05:23.719Z,28.50
2023-02-04T11:07:54.430Z,28.67
2023-02-04T11:10:39.731Z,28.54
2023-02-04T11:13:07.762Z,28.11
2023-02-04T11:16:19.532Z,28.92
2023-02-04T11:18:58.252Z,28.72
2023-02-04T11:21:34.667Z,28.38
2023-02-04T11:24:14.368Z,29.23
2023-02-04T11:26:51.679Z,29.26
2023-02-04T11:29:39.019Z,30.08
2023-02-04T11:32:28.419Z,29.25
2023-02-04T11:35:16.215Z,29.53
2023-02-04T11:37:45.388Z,29.82
2023-02-04T11:40:28.146Z,30.35
2023-02-04T11:43:16.449Z,30.61
2023-02-04T11:45:44.307Z,30.51
2023-02-04T11:48:19.259Z,30.23
2023-02-04T11:51:01.080Z,31.37
2023-02-04T11:53:34.077Z,31.40
2023-02-04T11:56:01.707Z,31.37
2023-02-04T11:58:31.345Z,31.81
2023-02-04T12:00:59.758Z,31.97
2023-02-04T12:03:30.818Z,31.83
2023-02-04T12:05:59.588Z,33.06
2023-02-04T12:08:37.019Z,33.33
2023-02-04T12:11:26.223Z,33.24
2023-02-04T12:13:56.711Z,33.60
2023-02-04T12:16:24.745Z,34.66
2023-02-04T12:18:52.498Z,34.61
2023-02-04T12:21:20.319Z,34.39
2023-02-04T12:23:47.780Z,35.19
2023-02-04T12:26:15.375Z,34.89
2023-02-04T12:28:43.153Z,34.99
2023-02-04T12:31:10.634Z,35.16
2023-02-04T12:33:38.235Z,35.17
2023-02-04T12:36:06.048Z,34.97
2023-02-04T12:38:33.597Z,35.22
2023-02-04T12:41:01.075Z,35.99
2023-02-04T12:43:28.735Z,35.64
2023-02-04T12:45:56.354Z,36.06
2023-02-04T12:48:23.981Z,35.79
2023-02-04T12:50:51.502Z,35.08
2023-02-04T12:53:18.971Z,35.35
2023-02-04T12:55:46.499Z,35.96
2023-02-04T12:58:14.108Z,35.98
2023-02-04T13:00:42.512Z,36.23
2023-02-04T13:03:10.012Z,36.86
2023-02-04T13:05:37.577Z,36.15
2023-02-04T13:08:05.347Z,36.87
2023-02-04T13:10:32.892Z,36.66
2023-02-04T13:13:02.405Z,36.65
2023-02-04T13:15:31.888Z,36.48
2023-02-04T13:17:59.632Z,37.66
2023-02-04T13:20:27.170Z,36.76
2023-02-04T13:22:54.723Z,38.00
2023-02-04T13:25:22.198Z,37.73
2023-02-04T13:27:49.774Z,37.12
2023-02-04T13:30:17.585Z,38.37
2023-02-04T13:32:46.100Z,37.81
2023-02-04T13:35:13.571Z,37.22
2023-02-04T13:37:41.081Z,37.65
2023-02-04T13:40:09.826Z,37.85
2023-02-04T13:42:37.428Z,37.29
2023-02-04T13:45:07.900Z,38.17
2023-02-04T13:47:35.436Z,38.16
2023-02-04T13:50:02.898Z,38.13
2023-02-04T13:52:30.632Z,37.86
2023-02-04T13:54:58.226Z,38.96
2023-02-04T13:57:25.725Z,38.40
2023-02-04T13:59:53.575Z,38.58
2023-02-04T14:02:24.309Z,38.41
2023-02-04T14:04:52.027Z,38.61
2023-02-04T14:07:19.516Z,38.96
2023-02-04T14:09:48.808Z,40.14
2023-02-04T14:12:16.414Z,40.08
2023-02-04T14:14:44.008Z,39.25
2023-02-04T14:17:11.531Z,39.48
2023-02-04T14:19:39.100Z,40.45
2023-02-04T14:22:06.683Z,39.46
2023-02-04T14:24:34.588Z,39.16
2023-02-04T14:27:07.472Z,40.24
2023-02-04T14:29:35.270Z,39.28
2023-02-04T14:32:02.769Z,39.50
2023-02-04T14:34:30.413Z,38.80
2023-02-04T14:36:58.045Z,39.14
2023-02-04T14:39:25.595Z,39.33
2023-02-04T14:41:53.236Z,38.92
2023-02-04T14:44:21.198Z,39.80
2023-02-04T14:46:49.422Z,40.90
2023-02-04T14:49:17.767Z,40.96
2023-02-04T14:51:45.388Z,41.71
2023-02-04T14:54:12.948Z,41.58
2023-02-04T14:56:40.562Z,42.21
2023-02-04T14:59:08.239Z,42.61
2023-02-04T15:01:35.894Z,41.56
2023-02-04T15:04:03.574Z,42.53
2023-02-04T15:06:31.064Z,42.01
2023-02-04T15:08:58.644Z,42.83
2023-02-04T15:11:26.105Z,42.41
2023-02-04T15:13:53.629Z,43.87
2023-02-04T15:16:21.113Z,43.73
2023-02-04T15:18:48.788Z,43.18
2023-02-04T15:21:31.760Z,43.73
2023-02-04T15:24:01.550Z,43.32
2023-02-04T15:26:29.054Z,43.22
2023-02-04T15:28:56.531Z,43.11
2023-02-04T15:31:25.468Z,43.34
2023-02-04T15:33:53.770Z,43.44
2023-02-04T15:36:21.343Z,44.08
2023-02-04T15:39:21.050Z,43.81
2023-02-04T15:41:48.516Z,42.13
2023-02-04T15:44:16.080Z,43.35
2023-02-04T15:46:43.520Z,43.33
2023-02-04T15:49:28.032Z,45.20
2023-02-04T15:51:55.605Z,45.53
2023-02-04T15:58:18.118Z,45.93
2023-02-04T16:00:53.924Z,45.71
2023-02-04T16:03:22.392Z,44.94
2023-02-04T16:05:52.116Z,46.01
2023-02-04T16:08:19.584Z,46.19
2023-02-04T16:10:52.469Z,46.04
2023-02-04T16:13:20.314Z,45.69
2023-02-04T16:15:47.829Z,45.96
2023-02-04T16:18:15.384Z,45.59
2023-02-04T16:20:42.881Z,46.37
2023-02-04T16:23:10.363Z,45.72
2023-02-04T16:25:37.975Z,45.26
2023-02-04T16:28:05.638Z,45.55
2023-02-04T16:30:33.374Z,45.54
2023-02-04T16:33:00.855Z,45.31
2023-02-04T16:35:30.477Z,44.32
2023-02-04T16:38:01.156Z,43.48
2023-02-04T16:40:29.614Z,44.76
2023-02-04T16:42:57.120Z,45.06
2023-02-04T16:45:24.650Z,45.11
2023-02-04T16:47:52.133Z,45.44
2023-02-04T16:50:22.467Z,45.62
2023-02-04T16:52:49.948Z,45.42
2023-02-04T16:55:17.515Z,45.83
2023-02-04T16:57:45.100Z,46.29
2023-02-04T17:00:13.143Z,47.15
2023-02-04T17:02:40.710Z,47.26
2023-02-04T17:05:08.491Z,48.01
2023-02-04T17:07:36.037Z,46.96
2023-02-04T17:10:04.009Z,48.43
2023-02-04T17:12:31.662Z,48.37
2023-02-04T17:15:28.327Z,48.25
2023-02-04T17:18:39.873Z,46.72
2023-02-04T17:21:08.559Z,47.28
2023-02-04T17:23:36.188Z,46.79
2023-02-04T17:26:03.825Z,47.14
2023-02-04T17:28:31.378Z,47.79
2023-02-04T17:30:59.175Z,46.21
2023-02-04T17:33:26.929Z,48.19
2023-02-04T17:35:54.518Z,47.88
2023-02-04T17:38:22.661Z,48.52
2023-02-04T17:40:50.535Z,48.28
2023-02-04T17:43:18.418Z,48.61
2023-02-04T17:45:45.882Z,48.36
2023-02-04T17:48:13.840Z,48.83
2023-02-04T17:50:43.543Z,49.42
2023-02-04T17:53:12.063Z,48.74
2023-02-04T17:55:43.310Z,48.82
2023-02-04T17:58:31.697Z,49.61
2023-02-04T18:01:16.325Z,49.75
2023-02-04T18:03:46.743Z,49.24
2023-02-04T18:06:30.325Z,49.81
2023-02-04T18:09:44.251Z,49.81
2023-02-04T18:12:16.723Z,49.53
2023-02-04T18:15:19.704Z,50.56
2023-02-04T18:17:47.261Z,50.12
2023-02-04T18:20:18.924Z,50.01
2023-02-04T18:22:50.779Z,49.51
2023-02-04T18:25:20.831Z,48.95
2023-02-04T18:27:48.409Z,49.26
2023-02-04T18:30:22.443Z,49.75
2023-02-04T18:32:51.391Z,49.70
2023-02-04T18:35:51.860Z,50.63
2023-02-04T18:38:39.827Z,50.05
2023-02-04T18:41:19.409Z,50.17
2023-02-04T18:44:04.020Z,49.44
2023-02-04T18:46:39.825Z,49.86
2023-02-04T18:49:32.922Z,50.25
2023-02-04T18:52:20.836Z,48.12
2023-02-04T18:54:56.792Z,47.64
2023-02-04T18:57:38.243Z,48.24
2023-02-04T19:00:12.519Z,48.48
2023-02-04T19:02:47.038Z,47.88
2023-02-04T19:05:26.677Z,48.49
2023-02-04T19:08:21.387Z,49.43
2023-02-04T19:10:50.103Z,48.58
2023-02-04T19:13:26.247Z,48.94
2023-02-04T19:15:56.916Z,48.79
2023-02-04T19:18:28.713Z,48.60
2023-02-04T19:21:01.674Z,48.75
2023-02-04T19:23:37.919Z,48.53
2023-02-04T19:26:28.222Z,48.24
2023-02-04T19:28:56.448Z,48.75
2023-02-04T19:31:34.760Z,48.99
2023-02-04T19:34:28.287Z,50.94
2023-02-04T19:36:56.058Z,49.30
2023-02-04T19:39:35.565Z,50.11
2023-02-04T19:42:36.632Z,50.40
2023-02-04T19:45:25.759Z,50.20
2023-02-04T19:47:57.645Z,47.92
2023-02-04T19:50:26.950Z,47.94
2023-02-04T19:53:22.678Z,48.57
2023-02-04T19:55:54.388Z,49.20
2023-02-04T19:58:28.847Z,49.31
2023-02-04T20:01:03.368Z,49.65
2023-02-04T20:03:37.150Z,49.97
2023-02-04T20:06:10.766Z,49.42
2023-02-04T20:08:41.207Z,49.25
2023-02-04T20:11:35.423Z,50.47
2023-02-04T20:14:15.293Z,50.31
2023-02-04T20:16:59.498Z,49.38
2023-02-04T20:19:29.303Z,48.89
2023-02-04T20:22:57.245Z,49.05
2023-02-04T20:25:48.529Z,48.20
2023-02-04T20:28:23.914Z,47.54
2023-02-04T20:30:52.258Z,47.05
2023-02-04T20:33:27.330Z,49.45
2023-02-04T20:36:23.050Z,49.62
2023-02-04T20:38:50.673Z,50.18
2023-02-04T20:41:20.640Z,49.91
2023-02-04T20:43:51.908Z,49.44
2023-02-04T20:46:26.000Z,50.08
2023-02-04T20:48:53.664Z,49.86
2023-02-04T20:51:27.204Z,50.32
2023-02-04T20:53:58.602Z,50.17
2023-02-04T20:56:35.862Z,50.60
2023-02-04T20:59:12.424Z,49.98
2023-02-04T21:01:45.073Z,49.33
2023-02-04T21:04:37.274Z,49.42
2023-02-04T21:07:19.842Z,49.88
2023-02-04T21:09:48.505Z,49.09
2023-02-04T21:12:16.277Z,48.90
2023-02-04T21:14:43.813Z,48.67
2023-02-04T21:17:11.392Z,48.99
2023-02-04T21:19:38.859Z,49.19
2023-02-04T21:22:06.315Z,48.83
2023-02-04T21:24:34.069Z,49.33
2023-02-04T21:27:01.702Z,48.62
2023-02-04T21:29:29.236Z,48.89
2023-02-04T21:31:56.847Z,49.04
2023-02-04T21:34:24.308Z,49.16
2023-02-04T21:36:51.845Z,50.73
2023-02-04T21:39:20.977Z,50.91
2023-02-04T21:42:08.411Z,50.53
2023-02-04T21:44:39.000Z,50.57
2023-02-04T21:47:06.733Z,49.65
2023-02-04T21:49:34.325Z,50.42
2023-02-04T21:52:01.747Z,49.38
2023-02-04T21:54:29.234Z,49.18
2023-02-04T21:56:56.878Z,49.95
2023-02-04T21:59:25.520Z,50.52
2023-02-04T22:01:53.168Z,50.41
2023-02-04T22:04:20.736Z,51.54
2023-02-04T22:06:48.167Z,51.23
2023-02-04T22:09:16.218Z,52.27
2023-02-04T22:11:43.997Z,52.59
2023-02-04T22:14:11.522Z,53.95
2023-02-04T22:16:38.979Z,54.69
2023-02-04T22:19:06.468Z,54.83
2023-02-04T22:21:35.124Z,55.75
2023-02-04T22:24:02.675Z,55.57
2023-02-04T22:26:30.136Z,54.75
2023-02-04T22:28:57.834Z,55.13
2023-02-04T22:31:25.628Z,54.96
2023-02-04T22:33:53.115Z,54.71
2023-02-04T22:36:20.595Z,55.82
2023-02-04T22:38:48.182Z,54.26
2023-02-04T22:41:15.627Z,54.38
2023-02-04T22:43:43.133Z,54.39
2023-02-04T22:46:10.619Z,54.77
2023-02-04T22:48:38.102Z,53.31
2023-02-04T22:51:05.690Z,53.02
2023-02-04T22:53:33.208Z,54.65
2023-02-04T22:56:00.680Z,54.69
2023-02-04T22:58:28.164Z,55.36
2023-02-04T23:00:55.645Z,55.91
2023-02-04T23:03:23.312Z,55.54
2023-02-04T23:05:50.974Z,56.25
2023-02-04T23:08:18.724Z,55.91
2023-02-04T23:10:46.706Z,53.91
2023-02-04T23:13:14.453Z,54.90
2023-02-04T23:15:41.988Z,55.51
2023-02-04T23:18:09.902Z,55.98
2023-02-04T23:20:39.696Z,54.85
2023-02-04T23:23:08.435Z,55.80
2023-02-04T23:25:36.610Z,55.61
2023-02-04T23:28:04.218Z,55.34
2023-02-04T23:30:31.748Z,55.06
2023-02-04T23:32:59.188Z,56.61
2023-02-04T23:35:26.871Z,56.11
2023-02-04T23:37:54.315Z,56.49
2023-02-04T23:40:21.886Z,56.11
2023-02-04T23:42:49.372Z,55.55
2023-02-04T23:45:17.088Z,56.18
2023-02-04T23:47:44.576Z,56.59
2023-02-04T23:50:12.172Z,55.86
2023-02-04T23:52:39.664Z,56.49
2023-02-04T23:55:07.311Z,55.76
2023-02-04T23:57:34.830Z,55.82
